Time;durP1;ratioP1;P1;durP2;ratioP2;P2;SDS_P1;SDS_P2;PMS_P1;PMS_P2;Temp;Humidity;BMP_temperature;BMP_pressure;BME280_temperature;BME280_humidity;BME280_pressure;Samples;Min_cycle;Max_cycle;Signal;HPM_P1;HPM_P2
2023/01/01 00:02:23;;;;;;;8.68;2.83;;;17.60;44.20;;;;;;5042936;28;20056;-46
2023/01/01 00:04:50;;;;;;;7.75;3.20;;;17.70;44.30;;;;;;5042370;28;20063;-45
2023/01/01 00:07:18;;;;;;;6.90;3.22;;;17.70;44.30;;;;;;5042212;28;20055;-45
2023/01/01 00:12:31;;;;;;;4.38;2.38;;;17.70;44.20;;;;;;5050475;28;20516;-44
2023/01/01 00:15:00;;;;;;;6.25;2.63;;;17.70;43.90;;;;;;5042446;28;20068;-42
2023/01/01 00:17:29;;;;;;;6.18;2.92;;;17.70;44.00;;;;;;5043001;28;20496;-43
2023/01/01 00:19:56;;;;;;;7.03;2.60;;;17.70;44.40;;;;;;5043441;28;20429;-44
2023/01/01 00:22:25;;;;;;;7.20;2.70;;;17.70;43.90;;;;;;5042523;28;20400;-44
2023/01/01 00:24:52;;;;;;;8.25;3.33;;;17.70;43.80;;;;;;5041291;28;20055;-43
2023/01/01 00:27:19;;;;;;;5.13;2.35;;;17.70;43.60;;;;;;5041850;28;20512;-43
2023/01/01 00:29:46;;;;;;;10.32;2.75;;;17.70;43.80;;;;;;5043879;28;20053;-46
2023/01/01 00:32:15;;;;;;;3.45;2.00;;;17.70;43.50;;;;;;5042556;28;20057;-44
2023/01/01 00:34:42;;;;;;;4.25;1.95;;;17.70;43.50;;;;;;5042296;28;20064;-46
2023/01/01 00:37:10;;;;;;;3.58;2.05;;;17.70;43.90;;;;;;5042770;28;20048;-43
2023/01/01 00:39:37;;;;;;;9.13;2.40;;;17.70;43.90;;;;;;5042349;28;20056;-48
2023/01/01 00:42:05;;;;;;;4.53;2.60;;;17.70;43.80;;;;;;5042962;28;20049;-45
2023/01/01 00:44:32;;;;;;;4.72;2.08;;;17.70;43.90;;;;;;5042928;28;20052;-43
2023/01/01 00:47:00;;;;;;;5.15;2.25;;;17.70;44.00;;;;;;5043267;28;20426;-43
2023/01/01 00:49:28;;;;;;;5.10;2.35;;;17.60;44.00;;;;;;5042629;28;20056;-44
2023/01/01 00:51:55;;;;;;;4.43;2.38;;;17.60;44.00;;;;;;5041672;28;20057;-46
2023/01/01 00:54:23;;;;;;;6.20;2.22;;;17.60;44.00;;;;;;5041181;28;20055;-48
2023/01/01 00:56:50;;;;;;;5.32;2.22;;;17.60;43.80;;;;;;5041878;28;20048;-46
2023/01/01 00:59:17;;;;;;;4.10;1.90;;;17.50;43.70;;;;;;5042579;28;20053;-43
2023/01/01 01:01:44;;;;;;;4.35;2.20;;;17.50;43.80;;;;;;5042328;28;20586;-44
2023/01/01 01:04:12;;;;;;;4.15;2.20;;;17.50;43.90;;;;;;5041491;28;20041;-46
2023/01/01 01:06:40;;;;;;;8.82;2.55;;;17.50;43.90;;;;;;5042491;28;20402;-43
2023/01/01 01:09:08;;;;;;;5.95;2.20;;;17.50;43.60;;;;;;5040330;28;20061;-51
2023/01/01 01:11:35;;;;;;;4.75;1.95;;;17.50;43.80;;;;;;5041592;28;20398;-48
2023/01/01 01:14:02;;;;;;;3.58;1.92;;;17.40;43.80;;;;;;5041883;28;20049;-48
2023/01/01 01:16:32;;;;;;;4.70;1.77;;;17.40;44.40;;;;;;5042250;28;20053;-44
2023/01/01 01:19:02;;;;;;;7.07;2.15;;;17.40;43.80;;;;;;5040486;28;20060;-45
2023/01/01 01:21:31;;;;;;;5.95;2.05;;;17.40;43.60;;;;;;5042621;28;20056;-46
2023/01/01 01:24:03;;;;;;;3.75;1.98;;;17.40;43.30;;;;;;5039865;28;20063;-48
2023/01/01 01:26:32;;;;;;;3.10;1.52;;;17.40;43.60;;;;;;5041566;28;20056;-50
2023/01/01 01:29:00;;;;;;;3.55;1.80;;;17.40;43.30;;;;;;5041645;28;20057;-47
2023/01/01 01:31:29;;;;;;;4.88;1.90;;;17.30;43.30;;;;;;5041362;28;20044;-48
2023/01/01 01:33:57;;;;;;;6.43;2.08;;;17.30;43.30;;;;;;5041535;28;20051;-48
2023/01/01 01:36:25;;;;;;;6.68;1.70;;;17.30;43.60;;;;;;5040805;28;20521;-52
2023/01/01 01:38:52;;;;;;;5.43;1.73;;;17.30;43.30;;;;;;5039991;28;21053;-45
2023/01/01 01:41:23;;;;;;;7.30;1.92;;;17.20;43.50;;;;;;5041990;28;20063;-45
2023/01/01 01:43:53;;;;;;;4.93;1.60;;;17.20;43.90;;;;;;5041998;28;20416;-51
2023/01/01 01:46:26;;;;;;;6.43;1.70;;;17.20;43.70;;;;;;5041133;28;20052;-46
2023/01/01 01:48:55;;;;;;;3.35;1.45;;;17.20;43.60;;;;;;5040981;28;20045;-48
2023/01/01 01:51:27;;;;;;;3.42;1.40;;;17.20;44.10;;;;;;5041596;28;20055;-46
2023/01/01 01:53:59;;;;;;;4.07;1.55;;;17.20;43.40;;;;;;5038699;28;20429;-51
2023/01/01 01:56:35;;;;;;;3.00;1.65;;;17.20;43.40;;;;;;5041281;28;20056;-45
2023/01/01 01:59:03;;;;;;;3.90;1.50;;;17.20;44.20;;;;;;5040435;28;20497;-49
2023/01/01 02:01:31;;;;;;;3.63;1.70;;;17.20;44.00;;;;;;5040199;28;20057;-47
2023/01/01 02:03:59;;;;;;;3.65;1.80;;;17.20;44.10;;;;;;5040043;28;20057;-46
2023/01/01 02:06:28;;;;;;;2.70;1.50;;;17.10;44.20;;;;;;5037599;28;20060;-48
2023/01/01 02:08:58;;;;;;;6.22;1.73;;;17.10;44.40;;;;;;5039727;28;20072;-45
2023/01/01 02:11:27;;;;;;;7.47;1.70;;;17.10;44.00;;;;;;5039568;28;20060;-48
2023/01/01 02:13:56;;;;;;;5.90;1.50;;;17.10;44.00;;;;;;5040166;28;20064;-46
2023/01/01 02:16:27;;;;;;;3.67;1.58;;;17.10;44.20;;;;;;5039386;28;20068;-47
2023/01/01 02:18:59;;;;;;;4.55;1.40;;;17.10;44.10;;;;;;5041409;28;20409;-51
2023/01/01 02:21:31;;;;;;;4.50;1.77;;;17.10;44.40;;;;;;5041188;28;20049;-46
2023/01/01 02:24:18;;;;;;;3.35;1.70;;;17.10;44.30;;;;;;5038691;28;20056;-51
2023/01/01 02:26:51;;;;;;;6.18;2.08;;;17.00;44.60;;;;;;5040162;28;20413;-49
2023/01/01 02:29:45;;;;;;;4.60;1.48;;;17.10;44.30;;;;;;5040883;28;20052;-51
2023/01/01 02:32:17;;;;;;;2.72;1.30;;;17.10;44.50;;;;;;5020593;28;20048;-48
2023/01/01 02:34:49;;;;;;;2.78;1.38;;;17.00;44.40;;;;;;5039446;28;20049;-53
2023/01/01 02:37:18;;;;;;;4.85;1.75;;;17.00;44.20;;;;;;5039224;28;20056;-52
2023/01/01 02:39:52;;;;;;;2.80;1.33;;;17.00;44.00;;;;;;5038103;28;20485;-43
2023/01/01 02:42:20;;;;;;;4.97;2.17;;;17.00;44.10;;;;;;5040248;28;20068;-48
2023/01/01 02:44:52;;;;;;;4.20;1.50;;;17.00;44.70;;;;;;5041221;28;20045;-50
2023/01/01 02:47:20;;;;;;;6.38;1.80;;;17.00;44.50;;;;;;5042006;28;20417;-45
2023/01/01 02:49:59;;;;;;;4.75;1.70;;;17.00;44.40;;;;;;5041342;28;20425;-46
2023/01/01 02:52:44;;;;;;;6.07;1.50;;;16.90;44.10;;;;;;5040335;28;20057;-48
2023/01/01 02:55:24;;;;;;;7.35;1.98;;;16.90;44.20;;;;;;5040782;28;20086;-45
2023/01/01 03:00:17;;;;;;;2.92;1.30;;;17.00;44.10;;;;;;5039733;28;20516;-45
2023/01/01 03:00:49;;;;;;;5.85;1.65;;;17.00;44.30;;;;;;5041633;28;20045;-53
2023/01/01 03:03:27;;;;;;;5.57;1.60;;;16.90;44.40;;;;;;5040612;28;20057;-42
2023/01/01 03:08:51;;;;;;;2.28;1.55;;;17.00;44.40;;;;;;5045143;28;20123;-51
2023/01/01 03:11:21;;;;;;;3.57;1.60;;;16.90;44.80;;;;;;5039323;28;20053;-43
2023/01/01 03:13:58;;;;;;;4.85;1.50;;;16.90;44.80;;;;;;5039719;28;20385;-46
2023/01/01 03:16:31;;;;;;;3.97;1.45;;;16.90;44.60;;;;;;5039382;28;20573;-47
2023/01/01 03:19:12;;;;;;;6.18;1.88;;;17.00;44.80;;;;;;5041124;28;20044;-47
2023/01/01 03:21:43;;;;;;;5.85;1.60;;;17.00;44.80;;;;;;5040373;28;20064;-46
2023/01/01 03:24:17;;;;;;;3.67;1.35;;;17.00;44.80;;;;;;5038493;28;20445;-43
2023/01/01 03:26:47;;;;;;;4.50;1.42;;;17.00;44.70;;;;;;5040581;28;20055;-46
2023/01/01 03:29:16;;;;;;;3.65;1.60;;;17.00;44.90;;;;;;5044361;28;20053;-44
2023/01/01 03:31:47;;;;;;;6.22;1.50;;;17.00;45.00;;;;;;5043785;28;20139;-49
2023/01/01 03:34:19;;;;;;;4.13;1.45;;;17.00;44.60;;;;;;5043895;28;20053;-48
2023/01/01 03:36:51;;;;;;;7.47;1.55;;;17.00;45.20;;;;;;5044118;28;20053;-50
2023/01/01 03:39:21;;;;;;;2.38;1.38;;;17.00;45.10;;;;;;5041206;28;20049;-44
2023/01/01 03:41:55;;;;;;;3.45;1.55;;;17.00;44.90;;;;;;5043040;28;20083;-48
2023/01/01 03:44:27;;;;;;;5.10;1.40;;;17.00;45.30;;;;;;5043283;28;20060;-52
2023/01/01 03:46:56;;;;;;;3.97;1.63;;;17.00;45.60;;;;;;5043246;28;20970;-44
2023/01/01 03:49:24;;;;;;;5.05;1.58;;;17.00;45.20;;;;;;5041846;28;20045;-47
2023/01/01 03:52:01;;;;;;;3.63;1.40;;;17.00;45.10;;;;;;5042806;28;20056;-45
2023/01/01 03:54:43;;;;;;;5.47;1.55;;;17.00;45.10;;;;;;5040922;28;20057;-46
2023/01/01 03:57:16;;;;;;;4.97;1.50;;;17.00;46.00;;;;;;5042190;28;20052;-46
2023/01/01 03:59:51;;;;;;;6.53;1.45;;;17.00;45.30;;;;;;5040599;28;20060;-47
2023/01/01 04:02:25;;;;;;;8.63;1.70;;;17.00;45.30;;;;;;5043233;28;20057;-47
2023/01/01 04:04:53;;;;;;;5.15;1.42;;;17.00;45.40;;;;;;5043593;28;20056;-46
2023/01/01 04:07:21;;;;;;;6.68;1.65;;;17.00;45.30;;;;;;5044900;28;20489;-44
2023/01/01 04:09:51;;;;;;;6.47;1.65;;;17.00;45.60;;;;;;5041270;28;20492;-45
2023/01/01 04:12:19;;;;;;;4.13;1.40;;;17.00;45.60;;;;;;5042849;28;20060;-46
2023/01/01 04:14:47;;;;;;;9.73;2.35;;;17.00;45.50;;;;;;5042854;28;20053;-44
2023/01/01 04:17:14;;;;;;;7.82;1.60;;;17.00;45.60;;;;;;5042882;28;20088;-45
2023/01/01 04:19:42;;;;;;;2.75;1.40;;;17.00;45.50;;;;;;5043675;28;20060;-47
2023/01/01 04:22:10;;;;;;;4.28;1.50;;;17.00;45.50;;;;;;5044083;28;20056;-48
2023/01/01 04:24:37;;;;;;;3.88;1.33;;;17.00;45.70;;;;;;5041609;28;20056;-45
2023/01/01 04:27:04;;;;;;;4.85;1.63;;;17.00;45.50;;;;;;5042555;28;20053;-47
2023/01/01 04:29:32;;;;;;;6.45;1.58;;;17.00;45.50;;;;;;5043254;28;20405;-48
2023/01/01 04:31:59;;;;;;;3.47;1.60;;;17.00;45.70;;;;;;5041721;28;20827;-46
2023/01/01 04:34:26;;;;;;;5.90;1.50;;;17.00;45.70;;;;;;5043466;28;20057;-45
2023/01/01 04:36:55;;;;;;;4.93;1.73;;;17.00;45.60;;;;;;5043165;28;20044;-46
2023/01/01 04:39:22;;;;;;;5.80;1.50;;;17.00;45.40;;;;;;5040285;28;20408;-44
2023/01/01 04:41:49;;;;;;;5.88;1.58;;;17.00;45.50;;;;;;5040142;28;20057;-43
2023/01/01 04:44:16;;;;;;;4.53;1.60;;;17.00;45.60;;;;;;5043024;28;20056;-43
2023/01/01 04:46:44;;;;;;;5.93;1.35;;;17.00;45.70;;;;;;5041409;28;20049;-47
2023/01/01 04:49:11;;;;;;;6.28;1.55;;;17.00;45.90;;;;;;5042913;28;20512;-47
2023/01/01 04:51:38;;;;;;;5.97;2.10;;;17.00;45.70;;;;;;5041519;28;20072;-46
2023/01/01 04:54:07;;;;;;;4.68;1.58;;;17.00;45.70;;;;;;5040384;28;20052;-49
2023/01/01 04:56:34;;;;;;;2.80;1.33;;;17.00;45.80;;;;;;5042556;28;20045;-46
2023/01/01 04:59:01;;;;;;;3.53;1.50;;;17.00;46.00;;;;;;5042739;28;20325;-48
2023/01/01 05:01:30;;;;;;;4.00;1.35;;;17.00;45.90;;;;;;5042428;28;20057;-44
2023/01/01 05:03:58;;;;;;;4.28;1.38;;;17.00;46.00;;;;;;5042086;28;20048;-47
2023/01/01 05:06:26;;;;;;;3.45;1.20;;;17.00;46.00;;;;;;5042206;28;20053;-47
2023/01/01 05:08:55;;;;;;;2.25;1.20;;;17.00;46.00;;;;;;5039898;28;20057;-47
2023/01/01 05:11:25;;;;;;;4.63;1.60;;;17.00;46.00;;;;;;5039274;28;20048;-46
2023/01/01 05:13:55;;;;;;;3.55;1.40;;;17.00;45.90;;;;;;5041733;28;20053;-44
2023/01/01 05:16:25;;;;;;;4.93;1.70;;;17.00;46.20;;;;;;5042629;28;20048;-46
2023/01/01 05:18:52;;;;;;;3.03;1.20;;;17.00;46.20;;;;;;5041082;28;20489;-49
2023/01/01 05:21:22;;;;;;;6.85;2.22;;;17.00;46.40;;;;;;5043818;28;20064;-46
2023/01/01 05:23:49;;;;;;;1.67;1.05;;;17.00;46.60;;;;;;5040648;28;20060;-44
2023/01/01 05:26:18;;;;;;;4.63;1.52;;;17.00;46.60;;;;;;5041582;28;20045;-49
2023/01/01 05:28:47;;;;;;;5.72;1.25;;;17.00;46.30;;;;;;5043000;28;20053;-47
2023/01/01 05:31:18;;;;;;;6.20;1.50;;;17.00;46.40;;;;;;5043168;28;20053;-45
2023/01/01 05:33:45;;;;;;;2.85;1.30;;;17.00;46.40;;;;;;5042083;28;20055;-47
2023/01/01 05:36:21;;;;;;;5.43;1.60;;;17.00;46.40;;;;;;5041064;28;20408;-49
2023/01/01 05:38:48;;;;;;;5.35;1.55;;;17.00;46.20;;;;;;5039264;28;20044;-46
2023/01/01 05:41:17;;;;;;;6.57;1.52;;;17.00;46.30;;;;;;5041290;28;20405;-45
2023/01/01 05:43:46;;;;;;;6.60;1.60;;;17.00;46.60;;;;;;5042476;28;20049;-45
2023/01/01 05:46:15;;;;;;;2.75;1.60;;;17.00;46.60;;;;;;5039967;28;20048;-43
2023/01/01 05:48:42;;;;;;;4.03;1.70;;;17.00;46.40;;;;;;5039734;28;20049;-46
2023/01/01 05:51:11;;;;;;;3.47;1.90;;;17.00;46.40;;;;;;5042104;28;20432;-48
2023/01/01 05:53:39;;;;;;;6.15;1.25;;;17.00;46.50;;;;;;5041668;28;20069;-48
2023/01/01 05:56:07;;;;;;;2.95;1.40;;;17.00;46.40;;;;;;5042787;28;20064;-44
2023/01/01 05:58:35;;;;;;;3.83;1.13;;;17.00;46.50;;;;;;5043105;28;20056;-44
2023/01/01 06:01:09;;;;;;;1.70;1.00;;;17.00;46.40;;;;;;5041540;28;20444;-45
2023/01/01 06:03:36;;;;;;;3.83;1.60;;;17.10;46.50;;;;;;5040297;28;20049;-48
2023/01/01 06:06:05;;;;;;;5.45;1.67;;;17.00;46.40;;;;;;5038465;28;20052;-47
2023/01/01 06:08:33;;;;;;;2.40;1.40;;;17.10;46.60;;;;;;5039602;28;20062;-46
2023/01/01 06:11:01;;;;;;;5.00;1.50;;;17.10;46.70;;;;;;5039887;28;20060;-46
2023/01/01 06:13:29;;;;;;;7.53;1.48;;;17.10;46.60;;;;;;5040087;28;20064;-48
2023/01/01 06:15:56;;;;;;;3.10;1.42;;;17.00;46.60;;;;;;5041272;28;20060;-47
2023/01/01 06:18:26;;;;;;;6.32;1.55;;;17.10;46.70;;;;;;5039965;28;20517;-45
2023/01/01 06:20:53;;;;;;;3.60;1.77;;;17.00;46.70;;;;;;5042767;28;20515;-44
2023/01/01 06:23:20;;;;;;;6.03;1.60;;;17.00;46.80;;;;;;5039297;28;20057;-46
2023/01/01 06:25:47;;;;;;;4.63;1.67;;;17.10;46.80;;;;;;5040565;28;20053;-47
2023/01/01 06:28:14;;;;;;;4.90;1.40;;;17.00;46.80;;;;;;5035892;28;20056;-48
2023/01/01 06:30:42;;;;;;;5.47;1.52;;;17.00;46.90;;;;;;5039501;28;20392;-47
2023/01/01 06:33:09;;;;;;;5.82;1.85;;;17.00;47.00;;;;;;5040108;28;20057;-46
2023/01/01 06:35:37;;;;;;;3.35;1.40;;;17.00;47.10;;;;;;5038065;28;21198;-45
2023/01/01 06:38:05;;;;;;;5.90;1.65;;;17.00;47.10;;;;;;5041697;28;20068;-45
2023/01/01 06:40:32;;;;;;;4.70;1.52;;;17.00;47.10;;;;;;5040177;28;20048;-48
2023/01/01 06:42:59;;;;;;;3.00;1.35;;;17.00;47.00;;;;;;5042018;28;20064;-50
2023/01/01 06:45:26;;;;;;;4.90;1.52;;;17.00;47.00;;;;;;5040248;28;20072;-45
2023/01/01 06:47:53;;;;;;;3.35;1.48;;;16.90;47.00;;;;;;5040818;28;20049;-44
2023/01/01 06:50:21;;;;;;;4.07;1.50;;;16.90;47.10;;;;;;5040652;28;20045;-48
2023/01/01 06:52:49;;;;;;;3.53;1.40;;;16.90;47.10;;;;;;5041927;28;20076;-51
2023/01/01 06:55:16;;;;;;;5.70;1.70;;;16.90;47.10;;;;;;5039771;28;20056;-45
2023/01/01 06:57:44;;;;;;;4.40;1.52;;;16.90;47.30;;;;;;5042134;28;20056;-46
2023/01/01 07:00:12;;;;;;;5.82;1.58;;;16.90;47.20;;;;;;5040773;28;20057;-46
2023/01/01 07:02:39;;;;;;;4.70;1.50;;;16.90;47.30;;;;;;5043951;28;20052;-50
2023/01/01 07:05:07;;;;;;;5.45;1.42;;;16.90;47.30;;;;;;5043228;28;20057;-45
2023/01/01 07:07:34;;;;;;;3.88;1.20;;;16.90;47.30;;;;;;5043881;28;20053;-45
2023/01/01 07:10:03;;;;;;;6.30;1.63;;;16.90;47.50;;;;;;5044498;28;20401;-42
2023/01/01 07:12:30;;;;;;;5.47;1.45;;;16.90;47.50;;;;;;5046278;28;20583;-44
2023/01/01 07:14:57;;;;;;;6.28;1.35;;;16.90;47.40;;;;;;5044838;28;20061;-53
2023/01/01 07:17:24;;;;;;;3.17;1.65;;;16.80;47.30;;;;;;5045887;28;20072;-43
2023/01/01 07:19:51;;;;;;;5.50;1.45;;;16.90;47.40;;;;;;5045081;28;20053;-47
2023/01/01 07:22:19;;;;;;;6.40;1.48;;;16.90;47.30;;;;;;5043901;28;20048;-46
2023/01/01 07:24:48;;;;;;;9.20;1.80;;;16.90;47.30;;;;;;5040088;28;20053;-45
2023/01/01 07:27:21;;;;;;;6.68;1.45;;;16.90;47.20;;;;;;5039759;28;20053;-48
2023/01/01 07:29:51;;;;;;;7.35;1.77;;;16.90;47.30;;;;;;5045537;28;20057;-47
2023/01/01 07:32:20;;;;;;;7.00;1.50;;;16.90;47.20;;;;;;5043878;28;20052;-49
2023/01/01 07:34:47;;;;;;;5.72;1.65;;;16.90;47.40;;;;;;5046604;28;20084;-46
2023/01/01 07:37:14;;;;;;;4.47;1.58;;;16.90;47.50;;;;;;5042851;28;20053;-44
2023/01/01 07:39:41;;;;;;;5.88;2.13;;;16.90;47.50;;;;;;5043554;28;20041;-47
2023/01/01 07:42:09;;;;;;;8.23;3.47;;;16.90;47.50;;;;;;5044626;28;20064;-50
2023/01/01 07:44:37;;;;;;;13.45;7.30;;;16.90;47.50;;;;;;5045391;28;20411;-49
2023/01/01 07:47:05;;;;;;;19.70;10.45;;;16.90;47.50;;;;;;5045792;28;20060;-44
2023/01/01 07:49:33;;;;;;;10.68;7.13;;;16.90;47.40;;;;;;5045325;28;20489;-44
2023/01/01 07:52:00;;;;;;;10.63;3.42;;;17.00;47.50;;;;;;5045353;28;20063;-43
2023/01/01 07:54:27;;;;;;;4.03;2.05;;;16.90;47.50;;;;;;5042232;28;20045;-45
2023/01/01 07:56:54;;;;;;;5.38;1.60;;;16.90;47.50;;;;;;5043952;28;20401;-44
2023/01/01 07:59:21;;;;;;;4.65;1.90;;;17.00;47.60;;;;;;5034596;28;20057;-45
2023/01/01 08:01:50;;;;;;;4.53;1.80;;;17.00;47.50;;;;;;5032843;28;20045;-45
2023/01/01 08:04:17;;;;;;;2.90;1.48;;;17.00;47.60;;;;;;5040769;28;20049;-48
2023/01/01 08:06:44;;;;;;;5.57;2.00;;;17.00;47.60;;;;;;5027985;28;20789;-46
2023/01/01 08:09:14;;;;;;;3.05;1.58;;;17.00;47.50;;;;;;5039174;28;20064;-43
2023/01/01 08:11:42;;;;;;;9.07;1.50;;;17.00;47.60;;;;;;5043828;28;20059;-47
2023/01/01 08:14:09;;;;;;;5.78;1.85;;;17.00;47.60;;;;;;5045395;28;20057;-45
2023/01/01 08:16:36;;;;;;;3.30;1.65;;;17.00;47.70;;;;;;5044855;28;20057;-42
2023/01/01 08:19:05;;;;;;;3.92;1.63;;;17.00;47.80;;;;;;5044851;28;20064;-42
2023/01/01 08:21:32;;;;;;;7.35;1.98;;;17.00;47.80;;;;;;5045415;28;20053;-44
2023/01/01 08:23:59;;;;;;;5.82;1.65;;;17.00;47.80;;;;;;5043244;28;20504;-45
2023/01/01 08:26:29;;;;;;;3.45;1.90;;;17.00;47.80;;;;;;5044569;28;20053;-46
2023/01/01 08:28:56;;;;;;;4.22;1.63;;;17.00;48.00;;;;;;5045129;28;20056;-43
2023/01/01 08:31:24;;;;;;;3.40;1.25;;;17.00;47.80;;;;;;5044712;28;20086;-48
2023/01/01 08:33:51;;;;;;;9.80;2.10;;;17.00;47.90;;;;;;5044511;28;20061;-46
2023/01/01 08:36:20;;;;;;;7.10;1.67;;;17.00;47.90;;;;;;5044917;28;20057;-46
2023/01/01 08:38:47;;;;;;;6.63;1.50;;;17.00;47.90;;;;;;5043496;28;20052;-49
2023/01/01 08:41:15;;;;;;;4.47;1.58;;;17.00;48.00;;;;;;5045543;28;20073;-47
2023/01/01 08:43:42;;;;;;;5.28;1.52;;;17.00;47.90;;;;;;5044679;28;20060;-44
2023/01/01 08:46:09;;;;;;;3.95;1.52;;;17.00;48.00;;;;;;5044343;28;20469;-45
2023/01/01 08:48:36;;;;;;;7.80;2.22;;;17.00;48.00;;;;;;5044674;28;20053;-42
2023/01/01 08:51:04;;;;;;;9.60;2.97;;;17.00;48.20;;;;;;5044799;28;20056;-45
2023/01/01 08:53:33;;;;;;;6.47;1.55;;;17.00;48.20;;;;;;5042731;28;20064;-45
2023/01/01 08:56:02;;;;;;;4.95;2.00;;;17.00;48.30;;;;;;5044463;28;20386;-48
2023/01/01 08:58:30;;;;;;;4.50;1.88;;;17.00;48.30;;;;;;5044019;28;20055;-44
2023/01/01 09:00:58;;;;;;;5.25;1.85;;;16.90;48.30;;;;;;5043684;28;20069;-42
2023/01/01 09:03:26;;;;;;;6.30;1.73;;;17.00;48.50;;;;;;5043539;28;20056;-46
2023/01/01 09:05:53;;;;;;;7.40;2.00;;;17.00;48.60;;;;;;5043614;28;20052;-47
2023/01/01 09:08:21;;;;;;;8.55;2.17;;;16.90;48.60;;;;;;5043251;28;20063;-47
2023/01/01 09:10:50;;;;;;;6.32;1.90;;;16.90;48.70;;;;;;5037836;28;20508;-46
2023/01/01 09:13:20;;;;;;;3.58;1.60;;;16.90;48.80;;;;;;5039629;28;20055;-45
2023/01/01 09:15:48;;;;;;;6.47;2.35;;;16.90;48.80;;;;;;5041994;28;20053;-45
2023/01/01 09:18:15;;;;;;;4.60;1.80;;;16.90;48.80;;;;;;5042190;28;20057;-46
2023/01/01 09:20:43;;;;;;;5.82;1.60;;;16.90;48.80;;;;;;5043056;28;20048;-46
2023/01/01 09:23:13;;;;;;;5.40;1.65;;;16.90;48.80;;;;;;5043598;28;20053;-48
2023/01/01 09:25:41;;;;;;;4.75;1.50;;;16.90;48.80;;;;;;5042068;28;20401;-45
2023/01/01 09:28:13;;;;;;;7.22;2.00;;;16.90;48.80;;;;;;5044146;28;20516;-47
2023/01/01 09:30:41;;;;;;;5.25;2.10;;;16.90;48.80;;;;;;5042051;28;20049;-43
2023/01/01 09:33:09;;;;;;;5.28;2.17;;;16.90;48.90;;;;;;5043786;28;20064;-42
2023/01/01 09:35:38;;;;;;;5.40;1.83;;;16.90;48.80;;;;;;5043412;28;20041;-48
2023/01/01 09:38:05;;;;;;;4.57;1.60;;;16.90;48.80;;;;;;5042961;28;20053;-45
2023/01/01 09:40:43;;;;;;;6.45;1.88;;;16.90;48.90;;;;;;5042613;28;20056;-45
2023/01/01 09:43:25;;;;;;;7.60;1.70;;;16.90;49.00;;;;;;5044220;28;20421;-44
2023/01/01 09:45:58;;;;;;;4.20;1.48;;;16.90;49.10;;;;;;5042415;28;20052;-44
2023/01/01 09:48:29;;;;;;;3.92;1.45;;;16.90;49.00;;;;;;5043308;28;20049;-48
2023/01/01 09:50:58;;;;;;;8.35;1.63;;;16.90;49.10;;;;;;5043632;28;20389;-44
2023/01/01 09:53:32;;;;;;;7.55;1.55;;;16.90;49.10;;;;;;5043251;28;20065;-46
2023/01/01 09:56:02;;;;;;;4.85;1.38;;;16.90;49.20;;;;;;5043278;28;20053;-47
2023/01/01 09:58:34;;;;;;;4.32;1.70;;;16.90;49.30;;;;;;5042877;28;20049;-47
2023/01/01 10:01:11;;;;;;;7.40;1.63;;;16.90;49.30;;;;;;5041661;28;20052;-46
2023/01/01 10:03:46;;;;;;;7.03;1.83;;;16.90;49.30;;;;;;5043660;28;20061;-45
2023/01/01 10:06:22;;;;;;;5.63;1.88;;;16.90;49.30;;;;;;5040873;28;20057;-44
2023/01/01 10:09:07;;;;;;;4.25;1.70;;;16.80;49.20;;;;;;5041357;28;20493;-44
2023/01/01 10:11:45;;;;;;;6.75;1.58;;;16.90;49.40;;;;;;5041658;28;20052;-46
2023/01/01 10:14:21;;;;;;;3.63;1.23;;;16.90;49.40;;;;;;5042896;28;20084;-45
2023/01/01 10:16:53;;;;;;;6.95;1.42;;;16.90;49.40;;;;;;5041143;28;20512;-45
2023/01/01 10:19:33;;;;;;;3.72;1.08;;;16.90;49.40;;;;;;5042484;28;20061;-46
2023/01/01 10:22:05;;;;;;;3.72;1.35;;;16.90;49.40;;;;;;5043047;28;20059;-44
2023/01/01 10:24:43;;;;;;;4.55;1.45;;;16.90;49.30;;;;;;5039202;28;20401;-46
2023/01/01 10:27:23;;;;;;;6.13;1.65;;;16.90;49.30;;;;;;5042613;28;20056;-45
2023/01/01 10:29:52;;;;;;;7.03;1.48;;;16.90;49.40;;;;;;5042493;28;20060;-45
2023/01/01 10:32:21;;;;;;;5.93;1.52;;;16.90;49.40;;;;;;5041183;28;20045;-46
2023/01/01 10:34:50;;;;;;;17.33;1.58;;;16.90;49.50;;;;;;5041493;28;20053;-46
2023/01/01 10:37:19;;;;;;;4.13;1.17;;;16.90;49.40;;;;;;5041753;28;20065;-44
2023/01/01 10:39:47;;;;;;;4.78;1.60;;;16.90;49.50;;;;;;5041305;28;20052;-47
2023/01/01 10:42:15;;;;;;;4.28;1.30;;;16.90;49.50;;;;;;5042352;28;20053;-45
2023/01/01 10:44:43;;;;;;;15.05;2.08;;;16.90;49.60;;;;;;5042439;28;20056;-44
2023/01/01 10:47:27;;;;;;;5.57;1.98;;;16.90;49.60;;;;;;5041309;28;20057;-46
2023/01/01 10:49:58;;;;;;;4.63;1.33;;;16.90;49.70;;;;;;5041876;28;20052;-46
2023/01/01 10:52:30;;;;;;;5.97;1.50;;;16.80;49.60;;;;;;5042681;28;20405;-49
2023/01/01 10:54:58;;;;;;;6.53;1.52;;;16.80;49.70;;;;;;5040587;28;20049;-46
2023/01/01 10:57:36;;;;;;;8.70;1.30;;;16.80;49.80;;;;;;5042365;28;20049;-45
2023/01/01 11:00:22;;;;;;;5.28;1.33;;;16.80;50.40;;;;;;5041292;28;20151;-47
2023/01/01 11:03:15;;;;;;;4.18;1.08;;;16.80;49.80;;;;;;5041853;28;20049;-45
2023/01/01 11:06:15;;;;;;;10.57;1.70;;;16.80;49.80;;;;;;5042471;28;20504;-46
2023/01/01 11:08:47;;;;;;;4.70;1.48;;;16.80;49.90;;;;;;5038468;28;20432;-48
2023/01/01 11:11:21;;;;;;;8.75;1.55;;;16.80;49.80;;;;;;5042383;28;20394;-48
2023/01/01 11:13:53;;;;;;;4.43;1.25;;;16.80;49.80;;;;;;5042176;28;20413;-48
2023/01/01 11:16:21;;;;;;;5.43;1.80;;;16.80;49.80;;;;;;5040479;28;20057;-45
2023/01/01 11:18:50;;;;;;;9.50;2.03;;;16.80;49.90;;;;;;5041809;28;20049;-46
2023/01/01 11:21:22;;;;;;;8.00;2.28;;;16.80;49.90;;;;;;5042375;28;20057;-45
2023/01/01 11:24:06;;;;;;;5.47;1.55;;;16.80;49.90;;;;;;5037292;28;20413;-46
2023/01/01 11:26:34;;;;;;;5.30;1.70;;;16.80;49.90;;;;;;5042701;28;20420;-46
2023/01/01 11:29:05;;;;;;;9.27;1.67;;;16.80;49.90;;;;;;5042107;28;20057;-45
2023/01/01 11:31:38;;;;;;;6.28;2.15;;;16.80;50.00;;;;;;5041150;28;20056;-50
2023/01/01 11:34:26;;;;;;;4.72;1.73;;;16.80;50.00;;;;;;5040321;28;20059;-47
2023/01/01 11:37:11;;;;;;;8.07;2.10;;;16.80;49.90;;;;;;5042048;28;20060;-47
2023/01/01 11:39:42;;;;;;;6.32;1.42;;;16.80;49.90;;;;;;5039504;28;20465;-49
2023/01/01 11:42:17;;;;;;;8.05;1.70;;;16.70;49.90;;;;;;5039722;28;20053;-45
2023/01/01 11:44:48;;;;;;;5.05;1.40;;;16.70;49.90;;;;;;5042732;28;20060;-47
2023/01/01 11:47:24;;;;;;;5.45;1.48;;;16.70;50.00;;;;;;5041155;28;20049;-49
2023/01/01 11:49:56;;;;;;;6.65;1.83;;;16.70;50.00;;;;;;5045806;28;20049;-47
2023/01/01 11:52:29;;;;;;;5.43;1.48;;;16.70;49.90;;;;;;5042544;28;20119;-48
2023/01/01 11:55:03;;;;;;;10.38;1.65;;;16.70;49.90;;;;;;5043272;28;20409;-47
2023/01/01 11:57:31;;;;;;;5.45;1.13;;;16.70;49.80;;;;;;5045548;28;20048;-45
2023/01/01 12:00:03;;;;;;;6.20;1.50;;;16.70;49.70;;;;;;5045059;28;20053;-45
2023/01/01 12:02:36;;;;;;;5.13;1.30;;;16.80;49.70;;;;;;5044340;28;20049;-47
2023/01/01 12:05:14;;;;;;;10.10;1.63;;;16.80;49.70;;;;;;5045309;28;20060;-49
2023/01/01 12:07:43;;;;;;;5.88;1.45;;;16.80;49.80;;;;;;5044247;28;20060;-45
2023/01/01 12:10:20;;;;;;;5.43;1.17;;;16.80;49.70;;;;;;5038455;28;20386;-44
2023/01/01 12:12:51;;;;;;;6.57;1.50;;;16.80;49.80;;;;;;5041408;28;20053;-50
2023/01/01 12:15:24;;;;;;;6.55;2.00;;;16.80;49.70;;;;;;5042143;28;20052;-47
2023/01/01 12:18:00;;;;;;;6.47;1.45;;;16.80;49.70;;;;;;5041718;28;20052;-48
2023/01/01 12:20:33;;;;;;;7.35;1.70;;;16.80;49.60;;;;;;5041204;28;20394;-44
2023/01/01 12:23:02;;;;;;;8.52;1.60;;;16.80;49.50;;;;;;5039931;28;20509;-47
2023/01/01 12:25:35;;;;;;;6.70;1.75;;;16.80;49.60;;;;;;5034856;28;20484;-48
2023/01/01 12:28:15;;;;;;;7.25;1.55;;;16.80;49.60;;;;;;5044901;28;20061;-46
2023/01/01 12:30:52;;;;;;;4.30;1.42;;;16.80;49.50;;;;;;5038313;28;20049;-44
2023/01/01 12:33:29;;;;;;;9.75;1.92;;;16.80;49.40;;;;;;5041567;28;20060;-44
2023/01/01 12:36:18;;;;;;;3.17;1.10;;;16.80;49.30;;;;;;5042527;28;20055;-50
2023/01/01 12:39:20;;;;;;;4.47;1.30;;;16.80;49.30;;;;;;5043523;28;20408;-46
2023/01/01 12:41:55;;;;;;;12.95;2.33;;;16.90;50.10;;;;;;5040011;28;20052;-45
2023/01/01 12:44:34;;;;;;;6.75;1.60;;;16.90;49.50;;;;;;5040946;28;20500;-44
2023/01/01 12:47:06;;;;;;;4.43;1.85;;;16.90;49.40;;;;;;5040942;28;20063;-45
2023/01/01 12:50:03;;;;;;;8.45;1.63;;;16.90;49.40;;;;;;5042386;28;20061;-49
2023/01/01 12:52:45;;;;;;;9.00;1.65;;;16.80;49.30;;;;;;5035843;28;20049;-48
2023/01/01 12:55:45;;;;;;;6.60;1.30;;;16.80;49.10;;;;;;5041221;28;20053;-44
2023/01/01 12:58:17;;;;;;;5.85;1.80;;;16.90;49.30;;;;;;5042232;28;20064;-48
2023/01/01 13:00:53;;;;;;;9.15;1.75;;;16.90;49.30;;;;;;5041901;28;20072;-43
2023/01/01 13:03:26;;;;;;;4.80;1.40;;;16.90;49.20;;;;;;5038382;28;20094;-43
2023/01/01 13:05:56;;;;;;;5.13;1.63;;;16.90;49.10;;;;;;5042870;28;20053;-44
2023/01/01 13:08:25;;;;;;;7.00;1.48;;;16.90;49.20;;;;;;5041239;28;20057;-44
2023/01/01 13:10:55;;;;;;;4.90;1.50;;;16.90;49.20;;;;;;5040845;28;20481;-48